Time;durP1;ratioP1;P1;durP2;ratioP2;P2;SDS_P1;SDS_P2;PMS_P1;PMS_P2;Temp;Humidity;BMP_temperature;BMP_pressure;BME280_temperature;BME280_humidity;BME280_pressure;Samples;Min_cycle;Max_cycle;Signal;HPM_P1;HPM_P2
2023/05/22 00:00:06;;;;;;;17.05;12.40;;;13.30;99.90;;;;;;5154146;27;20117;-73
2023/05/22 00:02:32;;;;;;;13.10;11.00;;;13.30;99.90;;;;;;5155393;27;20105;-74
2023/05/22 00:04:59;;;;;;;16.58;12.48;;;13.30;99.90;;;;;;5155806;27;20034;-74
2023/05/22 00:07:26;;;;;;;15.50;11.88;;;13.20;99.90;;;;;;5155570;27;20023;-74
2023/05/22 00:09:52;;;;;;;18.00;11.02;;;13.20;99.90;;;;;;5154108;27;20030;-74
2023/05/22 00:12:18;;;;;;;15.20;11.52;;;13.20;99.90;;;;;;5155753;27;20394;-74
2023/05/22 00:14:43;;;;;;;14.02;12.05;;;13.10;99.90;;;;;;5155635;27;20023;-74
2023/05/22 00:17:13;;;;;;;15.60;12.32;;;13.10;99.90;;;;;;5153915;27;20395;-74
2023/05/22 00:19:39;;;;;;;14.27;12.45;;;13.10;99.90;;;;;;5155363;27;20023;-74
2023/05/22 00:22:05;;;;;;;17.42;12.02;;;13.00;99.90;;;;;;5155308;27;20027;-74
2023/05/22 00:24:31;;;;;;;17.02;12.95;;;13.00;99.90;;;;;;5154045;27;20033;-74
2023/05/22 00:26:56;;;;;;;20.25;13.07;;;13.00;99.90;;;;;;5155197;27;20027;-74
2023/05/22 00:29:22;;;;;;;14.93;11.13;;;12.90;99.90;;;;;;5155169;27;20062;-74
2023/05/22 00:31:48;;;;;;;14.52;12.25;;;12.90;99.90;;;;;;5153930;27;20095;-74
2023/05/22 00:34:13;;;;;;;15.82;11.77;;;12.90;99.90;;;;;;5155416;27;20019;-74
2023/05/22 00:36:39;;;;;;;14.05;11.93;;;12.90;99.90;;;;;;5157550;27;20023;-74
2023/05/22 00:39:05;;;;;;;13.80;11.75;;;12.80;99.90;;;;;;5157964;27;20376;-74
2023/05/22 00:41:32;;;;;;;15.70;12.60;;;12.80;99.90;;;;;;5162777;27;20027;-74
2023/05/22 00:43:59;;;;;;;13.93;11.85;;;12.70;99.90;;;;;;5162754;27;20118;-74
2023/05/22 00:46:25;;;;;;;18.98;12.30;;;12.70;99.90;;;;;;5158933;27;20046;-75
2023/05/22 00:48:53;;;;;;;16.08;11.60;;;12.70;99.90;;;;;;5158904;27;20026;-74
2023/05/22 00:51:21;;;;;;;16.15;12.25;;;12.70;99.90;;;;;;5157827;27;20034;-74
2023/05/22 00:53:48;;;;;;;15.88;12.52;;;12.70;99.90;;;;;;5157484;27;20471;-74
2023/05/22 00:56:14;;;;;;;14.20;11.55;;;12.60;99.90;;;;;;5157524;27;20022;-74
2023/05/22 00:58:40;;;;;;;14.90;12.27;;;12.60;99.90;;;;;;5157454;27;20035;-74
2023/05/22 01:01:08;;;;;;;13.73;11.65;;;12.60;99.90;;;;;;5159104;27;20071;-74
2023/05/22 01:03:36;;;;;;;14.80;11.80;;;12.50;99.90;;;;;;5161035;27;20047;-74
2023/05/22 01:06:02;;;;;;;14.05;12.02;;;12.50;99.90;;;;;;5162872;27;20029;-74
2023/05/22 01:08:28;;;;;;;17.98;12.23;;;12.50;99.90;;;;;;5160614;27;20023;-74
2023/05/22 01:11:00;;;;;;;15.73;12.18;;;12.50;99.90;;;;;;5158688;27;20015;-74
2023/05/22 01:13:49;;;;;;;17.38;12.50;;;12.50;99.90;;;;;;5157710;27;20348;-75
2023/05/22 01:16:28;;;;;;;14.82;12.57;;;12.50;99.90;;;;;;5158585;27;20071;-74
2023/05/22 01:19:06;;;;;;;18.55;12.93;;;12.50;99.90;;;;;;5158437;27;20126;-75
2023/05/22 01:21:54;;;;;;;16.05;13.00;;;12.40;99.90;;;;;;5158502;27;20409;-74
2023/05/22 01:24:31;;;;;;;17.08;12.25;;;12.40;99.90;;;;;;5157946;27;20405;-74
2023/05/22 01:27:24;;;;;;;18.13;12.15;;;12.40;99.90;;;;;;5158114;27;20459;-74
2023/05/22 01:30:08;;;;;;;17.90;12.00;;;12.30;99.90;;;;;;5158435;27;20019;-74
2023/05/22 01:32:35;;;;;;;19.30;11.02;;;12.30;99.90;;;;;;5158204;27;20023;-75
2023/05/22 01:35:04;;;;;;;15.45;12.68;;;12.20;99.90;;;;;;5156792;27;20036;-75
2023/05/22 01:37:31;;;;;;;17.90;12.68;;;12.20;99.90;;;;;;5156864;27;20076;-74
2023/05/22 01:39:57;;;;;;;15.00;12.43;;;12.20;99.90;;;;;;5158405;27;20038;-74
2023/05/22 01:42:23;;;;;;;18.60;12.27;;;12.20;99.90;;;;;;5158147;27;20033;-74
2023/05/22 01:44:49;;;;;;;16.23;12.38;;;12.20;99.90;;;;;;5158052;27;20071;-74
2023/05/22 01:47:15;;;;;;;17.73;12.30;;;12.10;99.90;;;;;;5155874;27;20046;-74
2023/05/22 01:49:41;;;;;;;14.48;12.48;;;12.10;99.90;;;;;;5156713;27;20046;-74
2023/05/22 01:52:11;;;;;;;14.60;12.00;;;12.10;99.90;;;;;;5158179;27;20023;-74
2023/05/22 01:54:49;;;;;;;13.65;11.98;;;12.10;99.90;;;;;;5156389;27;20051;-74
2023/05/22 01:57:40;;;;;;;18.83;12.18;;;12.10;99.90;;;;;;5156489;27;20047;-74
2023/05/22 02:00:14;;;;;;;15.13;12.85;;;12.00;99.90;;;;;;5157438;27;20102;-76
2023/05/22 02:02:46;;;;;;;19.63;12.73;;;12.00;99.90;;;;;;5156271;27;20026;-74
2023/05/22 02:05:15;;;;;;;16.48;12.13;;;12.00;99.90;;;;;;5157752;27;20019;-75
2023/05/22 02:07:42;;;;;;;21.05;12.05;;;12.00;99.90;;;;;;5156448;27;20056;-75
2023/05/22 02:10:10;;;;;;;15.43;12.88;;;11.90;99.90;;;;;;5156010;27;20034;-75
2023/05/22 02:12:36;;;;;;;16.60;12.73;;;11.90;99.90;;;;;;5156087;27;20440;-75
2023/05/22 02:15:02;;;;;;;16.38;12.88;;;11.90;99.90;;;;;;5157387;27;20026;-75
2023/05/22 02:17:28;;;;;;;16.88;11.57;;;11.80;99.90;;;;;;5157338;27;20460;-75
2023/05/22 02:19:53;;;;;;;22.60;13.02;;;11.80;99.90;;;;;;5157279;27;20110;-76
2023/05/22 02:22:19;;;;;;;15.15;12.40;;;11.80;99.90;;;;;;5155809;27;20516;-75
2023/05/22 02:24:47;;;;;;;17.55;12.18;;;11.80;99.90;;;;;;5157225;27;20034;-75
2023/05/22 02:27:13;;;;;;;20.55;12.85;;;11.80;99.90;;;;;;5157063;27;20109;-75
2023/05/22 02:29:39;;;;;;;16.42;13.30;;;11.70;99.90;;;;;;5156887;27;20429;-76
2023/05/22 02:32:05;;;;;;;16.05;12.48;;;11.70;99.90;;;;;;5157103;27;20023;-75
2023/05/22 02:34:31;;;;;;;16.90;12.70;;;11.70;99.90;;;;;;5156962;27;20030;-76
2023/05/22 02:36:58;;;;;;;15.15;12.27;;;11.70;99.90;;;;;;5155453;27;20365;-75
2023/05/22 02:39:27;;;;;;;16.00;13.20;;;11.70;99.90;;;;;;5155585;27;20026;-75
2023/05/22 02:41:53;;;;;;;13.90;11.95;;;11.60;99.90;;;;;;5157002;27;20034;-75
2023/05/22 02:44:18;;;;;;;15.15;12.45;;;11.60;99.90;;;;;;5155563;27;20030;-75
2023/05/22 02:46:44;;;;;;;16.70;13.18;;;11.60;99.90;;;;;;5156555;27;20047;-75
2023/05/22 02:49:10;;;;;;;18.40;12.75;;;11.60;99.90;;;;;;5156741;27;20025;-76
2023/05/22 02:51:35;;;;;;;16.60;12.52;;;11.60;99.90;;;;;;5156620;27;20434;-75
2023/05/22 02:54:01;;;;;;;17.02;12.82;;;11.50;99.90;;;;;;5156687;27;20036;-75
2023/05/22 02:56:27;;;;;;;16.83;13.27;;;11.50;99.90;;;;;;5156727;27;20026;-76
2023/05/22 02:58:53;;;;;;;18.00;13.80;;;11.50;99.90;;;;;;5155996;27;20031;-75
2023/05/22 03:01:20;;;;;;;16.75;12.80;;;11.50;99.90;;;;;;5156982;27;20482;-75
2023/05/22 03:03:47;;;;;;;19.63;12.40;;;11.50;99.90;;;;;;5155705;27;20022;-75
2023/05/22 03:06:13;;;;;;;20.05;13.07;;;11.50;99.90;;;;;;5156009;27;20454;-75
2023/05/22 03:08:42;;;;;;;15.15;12.52;;;11.50;99.90;;;;;;5156691;27;20031;-75
2023/05/22 03:11:08;;;;;;;19.75;13.18;;;11.40;99.90;;;;;;5156595;27;20101;-75
2023/05/22 03:13:34;;;;;;;17.15;14.13;;;11.40;99.90;;;;;;5156740;27;20027;-76
2023/05/22 03:16:00;;;;;;;17.83;12.95;;;11.40;99.90;;;;;;5156595;27;20023;-75
2023/05/22 03:18:26;;;;;;;15.18;12.88;;;11.40;99.90;;;;;;5156405;27;20031;-76
2023/05/22 03:20:51;;;;;;;17.58;14.02;;;11.40;99.90;;;;;;5157352;27;20375;-75
2023/05/22 03:23:19;;;;;;;18.23;13.30;;;11.40;99.90;;;;;;5156404;27;20025;-75
2023/05/22 03:25:46;;;;;;;19.33;13.85;;;11.40;99.90;;;;;;5155789;27;20023;-75
2023/05/22 03:28:13;;;;;;;16.88;12.82;;;11.40;99.90;;;;;;5156128;27;20026;-75
2023/05/22 03:30:38;;;;;;;14.88;12.50;;;11.40;99.90;;;;;;5156509;27;20532;-76
2023/05/22 03:33:04;;;;;;;15.95;12.95;;;11.40;99.90;;;;;;5161573;27;20053;-75
2023/05/22 03:35:29;;;;;;;17.00;13.48;;;11.40;99.90;;;;;;5160255;27;20026;-75
2023/05/22 03:37:55;;;;;;;17.60;13.57;;;11.30;99.90;;;;;;5159467;27;20091;-75
2023/05/22 03:40:21;;;;;;;22.73;13.88;;;11.40;99.90;;;;;;5161938;27;20023;-75
2023/05/22 03:42:48;;;;;;;17.75;13.13;;;11.40;99.90;;;;;;5160396;27;20479;-75
2023/05/22 03:45:13;;;;;;;17.65;13.55;;;11.40;99.90;;;;;;5155282;27;20463;-75
2023/05/22 03:47:39;;;;;;;14.45;12.30;;;11.40;99.90;;;;;;5156457;27;20050;-75
2023/05/22 03:50:05;;;;;;;19.70;13.50;;;11.40;99.90;;;;;;5156311;27;20107;-75
2023/05/22 03:52:31;;;;;;;20.35;13.32;;;11.40;99.90;;;;;;5156293;27;20498;-74
2023/05/22 03:54:57;;;;;;;15.65;12.32;;;11.40;99.90;;;;;;5155131;27;20027;-74
2023/05/22 03:57:22;;;;;;;17.33;13.00;;;11.40;99.90;;;;;;5156131;27;20045;-74
2023/05/22 03:59:48;;;;;;;23.42;13.38;;;11.50;99.90;;;;;;5154560;27;20023;-75
2023/05/22 04:02:15;;;;;;;16.38;12.23;;;11.50;99.90;;;;;;5156080;27;20019;-74
2023/05/22 04:04:41;;;;;;;16.92;13.48;;;11.60;99.90;;;;;;5154242;27;20058;-75
2023/05/22 04:07:07;;;;;;;16.20;13.52;;;11.60;99.90;;;;;;5155113;27;20384;-75
2023/05/22 04:09:34;;;;;;;16.88;12.88;;;11.60;99.90;;;;;;5156374;27;20416;-75
2023/05/22 04:12:01;;;;;;;17.60;13.40;;;11.70;99.90;;;;;;5159638;27;20072;-78
2023/05/22 04:14:27;;;;;;;16.92;12.88;;;11.70;99.90;;;;;;5158279;27;20487;-74
2023/05/22 04:16:53;;;;;;;23.27;13.35;;;11.80;99.90;;;;;;5158287;27;20121;-74
2023/05/22 04:19:19;;;;;;;20.63;12.50;;;11.80;99.90;;;;;;5159172;27;20535;-75
2023/05/22 04:21:46;;;;;;;16.33;13.23;;;11.90;99.90;;;;;;5158246;27;20067;-74
2023/05/22 04:24:12;;;;;;;16.23;12.57;;;11.90;99.90;;;;;;5158406;27;20379;-74
2023/05/22 04:26:38;;;;;;;21.50;12.73;;;11.90;99.90;;;;;;5159507;27;20132;-73
2023/05/22 04:29:09;;;;;;;16.55;12.32;;;12.00;99.90;;;;;;5159763;27;20026;-74
2023/05/22 04:31:35;;;;;;;18.10;11.88;;;12.10;99.90;;;;;;5159543;27;20049;-74
2023/05/22 04:34:01;;;;;;;17.20;12.35;;;12.10;99.90;;;;;;5159176;27;20094;-74
2023/05/22 04:36:27;;;;;;;14.18;11.32;;;12.20;99.90;;;;;;5159087;27;20050;-74
2023/05/22 04:38:53;;;;;;;16.27;12.25;;;12.30;99.90;;;;;;5157557;27;20030;-73
2023/05/22 04:41:21;;;;;;;15.57;12.18;;;12.40;99.90;;;;;;5157720;27;20019;-74
2023/05/22 04:43:47;;;;;;;14.85;11.25;;;12.40;99.90;;;;;;5157643;27;20075;-74
2023/05/22 04:46:14;;;;;;;13.70;11.32;;;12.50;99.90;;;;;;5157362;27;20042;-74
2023/05/22 04:48:40;;;;;;;15.70;11.50;;;12.50;99.90;;;;;;5158814;27;20065;-73
2023/05/22 04:51:06;;;;;;;16.40;11.43;;;12.60;99.90;;;;;;5157535;27;20464;-74
2023/05/22 04:53:32;;;;;;;13.38;11.20;;;12.60;99.90;;;;;;5158450;27;20079;-74
2023/05/22 04:55:58;;;;;;;15.20;12.27;;;12.70;99.90;;;;;;5157570;27;20054;-74
2023/05/22 04:58:26;;;;;;;14.82;11.68;;;12.80;99.90;;;;;;5158540;27;20030;-74
2023/05/22 05:00:52;;;;;;;15.00;10.60;;;12.90;99.90;;;;;;5157130;27;20062;-74
2023/05/22 05:03:19;;;;;;;14.88;10.70;;;13.00;99.90;;;;;;5158584;27;20030;-74
2023/05/22 05:05:44;;;;;;;14.65;10.45;;;13.10;99.90;;;;;;5158797;27;20018;-74
2023/05/22 05:08:10;;;;;;;15.25;10.90;;;13.20;99.90;;;;;;5157173;27;20029;-74
2023/05/22 05:10:39;;;;;;;11.77;9.50;;;13.30;99.90;;;;;;5158423;27;20019;-74
2023/05/22 05:13:05;;;;;;;13.27;9.80;;;13.40;99.90;;;;;;5157303;27;20413;-74
2023/05/22 05:15:30;;;;;;;13.68;10.93;;;13.50;99.90;;;;;;5158261;27;20037;-74
2023/05/22 05:17:56;;;;;;;14.13;11.25;;;13.60;99.90;;;;;;5156799;27;20031;-74
2023/05/22 05:20:22;;;;;;;13.93;10.85;;;13.70;99.90;;;;;;5158145;27;20420;-74
2023/05/22 05:22:47;;;;;;;12.82;10.13;;;13.80;99.90;;;;;;5157086;27;20356;-75
2023/05/22 05:25:13;;;;;;;13.95;9.88;;;13.90;99.90;;;;;;5157808;27;20022;-74
2023/05/22 05:27:39;;;;;;;13.63;10.60;;;14.00;99.90;;;;;;5158195;27;20045;-74
2023/05/22 05:30:05;;;;;;;13.10;10.65;;;14.20;99.90;;;;;;5158133;27;20118;-74
2023/05/22 05:32:31;;;;;;;16.27;11.40;;;14.30;99.90;;;;;;5158040;27;20154;-74
2023/05/22 05:34:56;;;;;;;13.68;10.65;;;14.40;99.90;;;;;;5157009;27;20466;-75
2023/05/22 05:37:22;;;;;;;12.63;9.98;;;14.50;99.90;;;;;;5156541;27;20037;-75
2023/05/22 05:39:48;;;;;;;12.68;10.23;;;14.60;99.90;;;;;;5156582;27;20026;-75
2023/05/22 05:42:13;;;;;;;22.63;11.18;;;14.70;99.90;;;;;;5157658;27;20034;-74
2023/05/22 05:44:40;;;;;;;15.45;10.32;;;14.90;99.90;;;;;;5156632;27;20026;-74
2023/05/22 05:47:06;;;;;;;11.32;9.65;;;15.00;99.90;;;;;;5157357;27;20073;-74
2023/05/22 05:49:32;;;;;;;13.00;9.57;;;15.20;99.90;;;;;;5158424;27;20464;-74
2023/05/22 05:51:57;;;;;;;14.35;10.10;;;15.40;99.90;;;;;;5160834;27;20022;-75
2023/05/22 05:54:25;;;;;;;16.67;9.90;;;15.50;99.90;;;;;;5160386;27;20057;-74
2023/05/22 05:56:51;;;;;;;10.70;8.65;;;15.70;99.90;;;;;;5158256;27;20026;-74
2023/05/22 05:59:16;;;;;;;10.70;9.38;;;15.90;99.90;;;;;;5157444;27;20023;-74
2023/05/22 06:01:47;;;;;;;12.02;9.18;;;16.10;99.90;;;;;;5156133;27;20025;-74
2023/05/22 06:04:13;;;;;;;10.00;8.43;;;16.60;99.90;;;;;;5157682;27;20163;-74
2023/05/22 06:06:41;;;;;;;10.30;7.93;;;17.30;99.90;;;;;;5157368;27;20027;-74
2023/05/22 06:09:08;;;;;;;13.45;7.45;;;17.90;99.90;;;;;;5155928;27;20114;-75
2023/05/22 06:11:33;;;;;;;9.50;7.32;;;18.50;99.90;;;;;;5157378;27;20027;-74
2023/05/22 06:14:01;;;;;;;7.53;6.70;;;19.00;99.90;;;;;;5157099;27;20018;-74
2023/05/22 06:16:27;;;;;;;11.73;7.40;;;19.40;99.90;;;;;;5156008;27;20022;-74
2023/05/22 06:18:55;;;;;;;8.57;7.72;;;19.50;99.90;;;;;;5156962;27;20091;-74
2023/05/22 06:21:21;;;;;;;9.00;6.88;;;19.50;99.90;;;;;;5155639;27;20026;-74
2023/05/22 06:23:48;;;;;;;13.75;7.20;;;19.50;99.90;;;;;;5156756;27;20059;-74
2023/05/22 06:26:14;;;;;;;9.73;6.95;;;19.70;99.90;;;;;;5156906;27;20023;-74
2023/05/22 06:28:40;;;;;;;10.80;6.25;;;20.20;99.90;;;;;;5156866;27;20034;-74
2023/05/22 06:31:08;;;;;;;8.13;6.18;;;20.50;99.90;;;;;;5156678;27;20123;-72
2023/05/22 06:33:35;;;;;;;8.50;6.57;;;20.90;99.90;;;;;;5155611;27;20019;-71
2023/05/22 06:36:04;;;;;;;9.60;6.38;;;21.10;99.90;;;;;;5156741;27;20121;-72
2023/05/22 06:38:31;;;;;;;11.25;6.25;;;21.40;99.90;;;;;;5156714;27;20063;-74
2023/05/22 06:40:57;;;;;;;7.80;5.78;;;21.80;99.90;;;;;;5155612;27;20498;-74
2023/05/22 06:43:22;;;;;;;8.80;5.85;;;22.10;99.90;;;;;;5155180;27;20117;-75
2023/05/22 06:45:48;;;;;;;7.43;6.18;;;22.40;99.90;;;;;;5156349;27;20023;-74
2023/05/22 06:48:14;;;;;;;8.45;5.97;;;22.50;99.90;;;;;;5155150;27;20126;-74
2023/05/22 06:50:40;;;;;;;6.90;5.93;;;22.70;99.90;;;;;;5155322;27;20027;-74
2023/05/22 06:53:06;;;;;;;6.28;5.40;;;22.80;99.90;;;;;;5157002;27;20371;-74
2023/05/22 06:55:31;;;;;;;7.32;5.70;;;22.90;99.90;;;;;;5158150;27;20118;-75
2023/05/22 06:57:57;;;;;;;6.18;5.35;;;23.20;99.90;;;;;;5158096;27;20105;-76
2023/05/22 07:00:23;;;;;;;8.40;5.93;;;23.50;99.90;;;;;;5157662;27;20463;-75
2023/05/22 07:02:48;;;;;;;10.95;5.78;;;23.50;98.80;;;;;;5155462;27;20106;-75
2023/05/22 07:05:14;;;;;;;9.35;5.68;;;23.80;98.50;;;;;;5156396;27;20022;-75
2023/05/22 07:07:40;;;;;;;7.18;5.25;;;24.10;97.90;;;;;;5156131;27;20367;-74
2023/05/22 07:10:06;;;;;;;9.85;5.50;;;24.20;96.60;;;;;;5154885;27;20420;-75
2023/05/22 07:12:32;;;;;;;7.50;5.60;;;24.40;96.10;;;;;;5154806;27;20023;-75
2023/05/22 07:14:58;;;;;;;8.48;6.00;;;24.60;95.50;;;;;;5154959;27;20026;-74
2023/05/22 07:17:24;;;;;;;7.35;5.13;;;24.70;94.90;;;;;;5155874;27;20058;-75
2023/05/22 07:19:50;;;;;;;12.25;6.35;;;24.90;94.60;;;;;;5155929;27;20023;-75
2023/05/22 07:22:16;;;;;;;6.90;5.07;;;25.20;93.30;;;;;;5156159;27;20033;-75
2023/05/22 07:24:42;;;;;;;8.40;5.97;;;25.10;93.00;;;;;;5155688;27;20033;-75
2023/05/22 07:27:08;;;;;;;6.30;5.70;;;25.20;92.90;;;;;;5155727;27;20026;-75
2023/05/22 07:29:34;;;;;;;10.55;6.35;;;25.30;91.80;;;;;;5155801;27;20071;-75
2023/05/22 07:31:59;;;;;;;8.20;6.35;;;25.40;91.70;;;;;;5154506;27;20372;-75
2023/05/22 07:34:31;;;;;;;9.13;5.65;;;25.50;90.60;;;;;;5156055;27;20034;-75
2023/05/22 07:36:58;;;;;;;6.47;5.80;;;25.60;91.00;;;;;;5155763;27;20463;-75
2023/05/22 07:39:23;;;;;;;6.68;6.00;;;25.90;90.00;;;;;;5154219;27;20034;-75
2023/05/22 07:41:49;;;;;;;8.88;6.40;;;26.00;89.40;;;;;;5155298;27;20022;-75
2023/05/22 07:44:15;;;;;;;6.90;5.70;;;26.20;87.70;;;;;;5155124;27;20447;-75
2023/05/22 07:46:41;;;;;;;7.28;6.45;;;26.20;86.40;;;;;;5155469;27;20475;-75
2023/05/22 07:49:06;;;;;;;11.25;6.20;;;26.50;84.40;;;;;;5155375;27;20332;-75
2023/05/22 07:51:32;;;;;;;6.55;5.95;;;26.70;85.00;;;;;;5155730;27;20022;-75
2023/05/22 07:53:58;;;;;;;8.23;5.88;;;26.70;82.40;;;;;;5155331;27;20022;-75
2023/05/22 07:56:24;;;;;;;9.38;6.35;;;27.00;83.30;;;;;;5155397;27;20023;-75
2023/05/22 07:58:50;;;;;;;7.68;6.47;;;27.30;81.30;;;;;;5155350;27;20080;-75
2023/05/22 08:01:17;;;;;;;10.50;6.72;;;27.40;80.80;;;;;;5155239;27;20077;-75
2023/05/22 08:03:42;;;;;;;9.90;6.53;;;27.40;80.30;;;;;;5155425;27;20023;-75
2023/05/22 08:06:08;;;;;;;7.22;6.53;;;27.30;79.60;;;;;;5155335;27;20118;-75
2023/05/22 08:08:34;;;;;;;8.45;5.88;;;27.70;79.70;;;;;;5155443;27;20079;-75
2023/05/22 08:10:59;;;;;;;7.32;5.55;;;28.10;78.00;;;;;;5153855;27;20030;-75
2023/05/22 08:13:25;;;;;;;9.95;6.25;;;28.40;75.80;;;;;;5155185;27;20048;-75
2023/05/22 08:15:51;;;;;;;9.60;6.10;;;28.50;72.20;;;;;;5155258;27;20105;-75
2023/05/22 08:18:16;;;;;;;8.52;5.60;;;28.70;72.70;;;;;;5153426;27;20030;-75
2023/05/22 08:20:42;;;;;;;8.80;5.68;;;28.50;72.00;;;;;;5155105;27;20057;-75
2023/05/22 08:23:08;;;;;;;7.10;5.75;;;28.60;69.90;;;;;;5153850;27;20027;-75
2023/05/22 08:25:33;;;;;;;6.68;5.32;;;28.30;69.50;;;;;;5155369;27;20031;-76
2023/05/22 08:27:59;;;;;;;7.38;5.85;;;28.40;69.50;;;;;;5155109;27;20031;-76
2023/05/22 08:30:25;;;;;;;8.80;5.88;;;28.60;69.70;;;;;;5155141;27;20062;-75
2023/05/22 08:32:50;;;;;;;10.52;5.60;;;28.30;67.90;;;;;;5154965;27;20031;-76
2023/05/22 08:35:16;;;;;;;7.03;5.57;;;28.60;68.80;;;;;;5153635;27;20026;-76
2023/05/22 08:37:41;;;;;;;11.68;5.15;;;28.80;68.20;;;;;;5153700;27;20031;-76
2023/05/22 08:40:12;;;;;;;9.13;5.32;;;29.00;67.60;;;;;;5153697;27;20019;-76
2023/05/22 08:42:37;;;;;;;8.35;5.68;;;29.40;66.70;;;;;;5153418;27;20027;-76
2023/05/22 08:45:05;;;;;;;9.13;5.07;;;29.70;64.90;;;;;;5154975;27;20141;-76
2023/05/22 08:47:34;;;;;;;5.93;5.38;;;29.40;64.10;;;;;;5155378;27;20053;-76
2023/05/22 08:50:00;;;;;;;;;;;29.50;62.60;;;;;;5153994;27;20027;-74
2023/05/22 08:52:33;;;;;;;6.28;5.13;;;29.20;62.10;;;;;;5155132;27;20300;-76
2023/05/22 08:55:02;;;;;;;5.93;5.25;;;29.00;62.90;;;;;;5153804;27;20113;-75
2023/05/22 08:57:28;;;;;;;;;;;29.30;64.40;;;;;;5157678;27;20376;-76
2023/05/22 08:59:53;;;;;;;7.95;5.15;;;29.70;63.00;;;;;;5158728;27;19903;-76
2023/05/22 09:02:20;;;;;;;7.20;4.85;;;30.20;62.50;;;;;;5158605;27;20034;-76
2023/05/22 09:04:46;;;;;;;6.97;5.40;;;30.20;60.20;;;;;;5158569;27;20035;-76
2023/05/22 09:07:13;;;;;;;5.55;4.57;;;30.50;60.30;;;;;;5158483;27;20116;-77
2023/05/22 09:09:39;;;;;;;5.68;4.45;;;30.40;60.10;;;;;;5158458;27;20019;-76
2023/05/22 09:12:08;;;;;;;9.88;5.07;;;30.60;58.90;;;;;;5158526;27;20027;-76
2023/05/22 09:14:43;;;;;;;8.35;4.63;;;30.60;58.30;;;;;;5157408;27;20033;-76
2023/05/22 09:17:14;;;;;;;6.10;4.82;;;30.40;57.30;;;;;;5156923;27;20023;-76
2023/05/22 09:19:46;;;;;;;8.88;5.05;;;30.50;58.30;;;;;;5157104;27;20026;-76
2023/05/22 09:22:12;;;;;;;6.88;4.93;;;30.20;57.80;;;;;;5156600;27;20070;-73
2023/05/22 09:24:43;;;;;;;6.78;5.30;;;29.50;58.40;;;;;;5157796;27;20023;-73
2023/05/22 09:27:10;;;;;;;7.55;5.00;;;29.40;59.20;;;;;;5158459;27;20030;-73
2023/05/22 09:29:55;;;;;;;6.45;5.20;;;29.40;59.10;;;;;;5156754;27;20113;-73
2023/05/22 09:32:21;;;;;;;11.52;5.03;;;29.60;59.60;;;;;;5158048;27;20076;-73
2023/05/22 09:34:47;;;;;;;7.10;4.38;;;30.20;59.30;;;;;;5156724;27;20023;-73
2023/05/22 09:37:14;;;;;;;7.85;5.10;;;30.80;58.60;;;;;;5158158;27;20406;-75
2023/05/22 09:39:42;;;;;;;12.05;4.97;;;31.20;56.30;;;;;;5156608;27;20018;-75
2023/05/22 09:42:09;;;;;;;7.28;4.63;;;31.40;56.70;;;;;;5157703;27;20023;-76
2023/05/22 09:44:35;;;;;;;7.75;4.80;;;31.60;56.00;;;;;;5156295;27;20027;-77
2023/05/22 09:47:03;;;;;;;9.18;4.97;;;32.10;54.80;;;;;;5157308;27;20054;-76
2023/05/22 09:49:29;;;;;;;7.40;4.63;;;32.10;52.70;;;;;;5158086;27;20026;-76
2023/05/22 09:51:56;;;;;;;8.20;4.78;;;32.00;53.60;;;;;;5156212;27;20027;-76
2023/05/22 09:54:25;;;;;;;7.60;4.90;;;32.00;53.00;;;;;;5147132;27;20091;-76
2023/05/22 09:56:55;;;;;;;6.90;4.53;;;31.90;52.40;;;;;;5149871;27;20026;-61
2023/05/22 09:59:25;;;;;;;8.85;4.50;;;30.80;52.90;;;;;;5157375;27;20034;-65
2023/05/22 10:01:52;;;;;;;10.35;4.60;;;31.00;55.10;;;;;;5156174;27;20025;-60
2023/05/22 10:04:20;;;;;;;5.95;4.22;;;31.00;54.40;;;;;;5157557;27;20032;-61
2023/05/22 10:06:53;;;;;;;7.15;4.43;;;31.20;53.80;;;;;;5157599;27;20072;-60
2023/05/22 10:09:23;;;;;;;19.33;4.45;;;31.30;54.00;;;;;;5121699;22;20072;-61
2023/05/22 10:11:53;;;;;;;5.45;4.40;;;31.70;53.70;;;;;;5074991;28;20102;-61
2023/05/22 10:14:19;;;;;;;7.93;5.28;;;31.90;52.40;;;;;;5074763;28;20042;-61
2023/05/22 10:16:45;;;;;;;5.82;4.80;;;31.80;52.50;;;;;;5075184;28;20457;-61
2023/05/22 10:19:12;;;;;;;10.57;4.53;;;32.00;52.90;;;;;;5075111;28;20081;-61
2023/05/22 10:21:40;;;;;;;6.85;4.60;;;31.90;51.90;;;;;;5074945;28;20056;-60
2023/05/22 10:24:07;;;;;;;5.32;4.32;;;31.50;52.70;;;;;;5074983;28;20021;-61
2023/05/22 10:26:32;;;;;;;5.97;4.13;;;31.80;53.20;;;;;;5057029;28;20082;-61
2023/05/22 10:29:09;;;;;;;9.18;5.07;;;31.60;51.50;;;;;;5074894;28;20032;-62
2023/05/22 10:31:41;;;;;;;4.75;4.28;;;30.70;53.80;;;;;;5074865;28;20402;-60
2023/05/22 10:34:11;;;;;;;6.40;4.88;;;30.80;53.80;;;;;;5074894;28;20039;-60
2023/05/22 10:36:57;;;;;;;7.38;4.80;;;30.20;53.10;;;;;;5075240;28;20021;-61
2023/05/22 10:39:26;;;;;;;5.38;4.68;;;30.50;54.10;;;;;;5074824;28;20127;-61
2023/05/22 10:41:52;;;;;;;6.32;4.65;;;30.80;53.20;;;;;;5075121;28;20060;-61
2023/05/22 10:44:18;;;;;;;8.30;4.57;;;31.10;53.20;;;;;;5076635;28;20024;-59
2023/05/22 10:46:50;;;;;;;5.18;4.30;;;31.00;52.50;;;;;;5074833;28;20534;-60
2023/05/22 10:49:21;;;;;;;8.60;4.90;;;31.10;51.60;;;;;;5074548;28;20025;-60
2023/05/22 10:51:47;;;;;;;6.72;4.80;;;31.00;52.00;;;;;;5074520;28;20028;-60
2023/05/22 10:54:12;;;;;;;6.15;5.13;;;30.70;53.50;;;;;;5074515;28;20177;-59
2023/05/22 10:56:38;;;;;;;9.88;4.63;;;30.40;52.80;;;;;;5074554;28;20027;-65
2023/05/22 10:59:06;;;;;;;4.63;4.22;;;30.80;52.70;;;;;;5056514;28;20481;-65
2023/05/22 11:01:35;;;;;;;7.07;4.53;;;31.00;50.50;;;;;;5074371;28;20025;-64
2023/05/22 11:04:08;;;;;;;6.72;4.10;;;30.60;50.60;;;;;;5056641;28;20032;-64
2023/05/22 11:06:44;;;;;;;4.30;3.78;;;30.90;52.70;;;;;;5056810;28;20016;-65
2023/05/22 11:09:40;;;;;;;6.93;4.35;;;31.30;49.40;;;;;;5074136;28;20130;-64
2023/05/22 11:12:27;;;;;;;4.68;4.28;;;31.70;49.80;;;;;;5045998;28;20029;-64
2023/05/22 11:15:07;;;;;;;4.97;3.78;;;31.70;50.30;;;;;;5055944;28;20021;-64
2023/05/22 11:17:41;;;;;;;6.90;4.40;;;31.30;48.00;;;;;;5074673;28;20493;-64
2023/05/22 11:20:21;;;;;;;9.60;4.80;;;30.70;48.80;;;;;;5055746;28;20031;-64
2023/05/22 11:22:55;;;;;;;12.60;4.45;;;30.00;50.40;;;;;;5074301;28;20031;-65
2023/05/22 11:25:21;;;;;;;7.35;4.22;;;30.00;51.40;;;;;;5074277;28;20472;-64
2023/05/22 11:27:48;;;;;;;6.72;4.30;;;30.20;51.40;;;;;;5074062;28;20060;-64
2023/05/22 11:30:14;;;;;;;5.60;4.90;;;30.60;50.70;;;;;;5073869;28;20103;-64
2023/05/22 11:32:46;;;;;;;5.30;4.05;;;30.40;49.00;;;;;;5074215;28;20031;-63
2023/05/22 11:35:19;;;;;;;7.47;4.38;;;30.40;49.50;;;;;;5056914;28;20060;-64
2023/05/22 11:37:45;;;;;;;8.13;4.05;;;31.00;49.80;;;;;;5056738;28;20422;-64
2023/05/22 11:40:15;;;;;;;4.70;4.30;;;32.10;49.10;;;;;;5075092;28;20459;-65
2023/05/22 11:42:41;;;;;;;7.00;4.22;;;33.00;48.70;;;;;;5049804;28;20446;-66
2023/05/22 11:45:07;;;;;;;11.35;4.50;;;33.00;48.20;;;;;;5055648;28;20059;-66
2023/05/22 11:47:33;;;;;;;10.27;4.38;;;33.00;47.70;;;;;;5078324;28;20032;-66
2023/05/22 11:50:00;;;;;;;6.68;4.60;;;33.30;46.60;;;;;;5075108;28;20064;-67
2023/05/22 11:52:32;;;;;;;8.05;4.68;;;33.10;46.20;;;;;;5093205;28;20449;-66
2023/05/22 11:54:58;;;;;;;11.10;4.05;;;33.00;47.60;;;;;;5095107;28;20552;-75
2023/05/22 11:57:24;;;;;;;7.07;4.53;;;33.80;45.20;;;;;;5093744;28;20032;-75
2023/05/22 11:59:50;;;;;;;4.32;3.40;;;34.10;43.90;;;;;;5076150;28;20020;-75
2023/05/22 12:02:16;;;;;;;5.20;4.05;;;33.30;43.70;;;;;;5093799;28;20020;-75
2023/05/22 12:04:42;;;;;;;9.82;3.70;;;33.10;44.60;;;;;;5075624;28;20062;-74
2023/05/22 12:07:08;;;;;;;7.53;4.10;;;33.60;43.20;;;;;;5094157;28;20024;-75
2023/05/22 12:09:33;;;;;;;5.97;3.42;;;34.10;42.90;;;;;;5093565;28;20404;-75
2023/05/22 12:12:00;;;;;;;8.18;4.03;;;34.60;40.60;;;;;;5094117;28;20032;-75
2023/05/22 12:14:27;;;;;;;5.03;3.63;;;34.60;41.30;;;;;;5093421;28;20461;-75
2023/05/22 12:16:53;;;;;;;6.93;4.38;;;32.70;43.90;;;;;;5093975;28;20081;-73
2023/05/22 12:19:20;;;;;;;5.40;3.97;;;30.90;46.00;;;;;;5093782;28;20043;-72
2023/05/22 12:21:48;;;;;;;7.22;4.15;;;30.20;47.70;;;;;;5093556;28;20025;-72
2023/05/22 12:24:14;;;;;;;6.90;3.55;;;29.70;48.50;;;;;;5075450;28;20432;-73
2023/05/22 12:26:40;;;;;;;4.07;3.67;;;29.70;49.20;;;;;;5093767;28;20063;-72
2023/05/22 12:29:06;;;;;;;5.53;3.67;;;30.10;49.30;;;;;;5075435;28;20467;-72
2023/05/22 12:31:36;;;;;;;5.63;3.83;;;30.00;49.50;;;;;;5095885;28;20058;-73
2023/05/22 12:34:05;;;;;;;5.80;3.42;;;30.80;48.10;;;;;;5097369;28;20061;-74
2023/05/22 12:36:33;;;;;;;4.80;3.65;;;31.90;46.20;;;;;;5097456;28;20059;-75
2023/05/22 12:38:59;;;;;;;6.93;4.10;;;31.80;45.30;;;;;;5097287;28;20032;-75